createdAt,value
2023-09-09T00:00:19.254Z,22.29
2023-09-09T00:01:19.273Z,22.29
2023-09-09T00:02:19.336Z,22.28
2023-09-09T00:03:19.545Z,22.27
2023-09-09T00:04:19.518Z,22.25
2023-09-09T00:05:19.588Z,22.23
2023-09-09T00:06:19.621Z,22.22
2023-09-09T00:07:19.736Z,22.16
2023-09-09T00:08:19.806Z,22.17
2023-09-09T00:09:19.876Z,22.16
2023-09-09T00:10:22.082Z,22.13
2023-09-09T00:11:20.037Z,22.09
2023-09-09T00:12:20.178Z,22.07
2023-09-09T00:13:20.233Z,22.06
2023-09-09T00:14:20.316Z,22.04
2023-09-09T00:15:20.455Z,22.04
2023-09-09T00:16:20.624Z,22.02
2023-09-09T00:17:20.643Z,22.04
2023-09-09T00:18:20.663Z,22.04
2023-09-09T00:19:20.748Z,22.06
2023-09-09T00:20:20.787Z,22.06
2023-09-09T00:21:20.909Z,22.06
2023-09-09T00:22:21.022Z,22.06
2023-09-09T00:23:21.106Z,22.06
2023-09-09T00:24:21.209Z,22.06
2023-09-09T00:25:21.227Z,22.04
2023-09-09T00:26:21.300Z,22.06
2023-09-09T00:27:21.407Z,22.07
2023-09-09T00:28:21.502Z,22.06
2023-09-09T00:29:21.670Z,22.07
2023-09-09T00:30:21.756Z,22.06
2023-09-09T00:31:21.810Z,22.04
2023-09-09T00:32:21.905Z,22.02
2023-09-09T00:33:22.028Z,22.01
2023-09-09T00:34:22.135Z,21.99
2023-09-09T00:35:22.223Z,21.99
2023-09-09T00:36:22.228Z,21.99
2023-09-09T00:37:22.421Z,21.98
2023-09-09T00:38:22.371Z,21.99
2023-09-09T00:39:22.438Z,22.01
2023-09-09T00:40:22.517Z,22.01
2023-09-09T00:41:22.684Z,21.99
2023-09-09T00:42:22.693Z,21.99
2023-09-09T00:43:22.813Z,21.99
2023-09-09T00:44:22.866Z,21.98
2023-09-09T00:45:23.094Z,21.98
2023-09-09T00:46:23.128Z,21.98
2023-09-09T00:47:23.254Z,21.97
2023-09-09T00:48:23.261Z,21.95
2023-09-09T00:49:23.285Z,21.94
2023-09-09T00:50:23.377Z,21.95
2023-09-09T00:51:23.442Z,21.94
2023-09-09T00:52:23.586Z,21.92
2023-09-09T00:53:23.659Z,21.91
2023-09-09T00:54:23.716Z,21.90
2023-09-09T00:55:23.760Z,21.90
2023-09-09T00:56:23.809Z,21.85
2023-09-09T00:57:23.967Z,21.83
2023-09-09T00:58:24.001Z,21.81
2023-09-09T00:59:24.094Z,21.81
2023-09-09T01:00:24.235Z,21.78
2023-09-09T01:01:24.362Z,21.76
2023-09-09T01:02:24.501Z,21.76
2023-09-09T01:03:24.514Z,21.72
2023-09-09T01:04:24.549Z,21.75
2023-09-09T01:05:24.723Z,21.74
2023-09-09T01:06:24.672Z,21.75
2023-09-09T01:07:24.754Z,21.74
2023-09-09T01:08:24.881Z,21.74
2023-09-09T01:09:24.903Z,21.72
2023-09-09T01:10:25.014Z,21.69
2023-09-09T01:11:25.036Z,21.71
2023-09-09T01:12:25.129Z,21.69
2023-09-09T01:13:25.221Z,21.69
2023-09-09T01:14:25.383Z,21.71
2023-09-09T01:15:25.376Z,21.69
2023-09-09T01:16:25.565Z,21.69
2023-09-09T01:17:25.693Z,21.71
2023-09-09T01:18:25.686Z,21.67
2023-09-09T01:19:25.693Z,21.66
2023-09-09T01:20:25.990Z,21.64
2023-09-09T01:21:25.873Z,21.63
2023-09-09T01:22:25.983Z,21.64
2023-09-09T01:23:26.099Z,21.64
2023-09-09T01:24:26.148Z,21.64
2023-09-09T01:25:26.219Z,21.61
2023-09-09T01:26:26.367Z,21.59
2023-09-09T01:27:26.406Z,21.57
2023-09-09T01:28:26.520Z,21.53
2023-09-09T01:29:26.578Z,21.51
2023-09-09T01:30:26.712Z,21.48
2023-09-09T01:31:26.834Z,21.50
2023-09-09T01:32:26.913Z,21.48
2023-09-09T01:33:26.896Z,21.46
2023-09-09T01:34:26.943Z,21.46
2023-09-09T01:35:27.049Z,21.48
2023-09-09T01:36:27.112Z,21.46
2023-09-09T01:37:27.284Z,21.46
2023-09-09T01:38:27.255Z,21.45
2023-09-09T01:39:27.354Z,21.45
2023-09-09T01:40:27.450Z,21.45
2023-09-09T01:41:27.650Z,21.45
2023-09-09T01:42:27.601Z,21.46
2023-09-09T01:43:27.681Z,21.45
2023-09-09T01:44:27.739Z,21.44
2023-09-09T01:45:27.980Z,21.45
2023-09-09T01:46:27.943Z,21.42
2023-09-09T01:47:27.996Z,21.42
2023-09-09T01:48:28.044Z,21.42
2023-09-09T01:49:28.101Z,21.41
2023-09-09T01:50:28.160Z,21.39
2023-09-09T01:51:28.267Z,21.41
2023-09-09T01:52:28.404Z,21.41
2023-09-09T01:53:28.424Z,21.39
2023-09-09T01:54:28.499Z,21.39
2023-09-09T01:55:28.621Z,21.41
2023-09-09T01:56:28.701Z,21.41
2023-09-09T01:57:28.864Z,21.41
2023-09-09T01:58:28.905Z,21.38
2023-09-09T01:59:29.027Z,21.38
2023-09-09T02:00:29.036Z,21.36
2023-09-09T02:01:29.163Z,21.35
2023-09-09T02:02:29.285Z,21.35
2023-09-09T02:03:29.515Z,21.35
2023-09-09T02:04:29.365Z,21.34
2023-09-09T02:05:29.479Z,21.34
2023-09-09T02:06:29.649Z,21.35
2023-09-09T02:07:29.654Z,21.35
2023-09-09T02:08:29.800Z,21.34
2023-09-09T02:09:29.797Z,21.36
2023-09-09T02:10:29.956Z,21.35
2023-09-09T02:11:29.900Z,21.32
2023-09-09T02:12:30.044Z,21.30
2023-09-09T02:13:30.270Z,21.32
2023-09-09T02:14:30.105Z,21.27
2023-09-09T02:15:30.242Z,21.26
2023-09-09T02:16:30.514Z,21.23
2023-09-09T02:17:30.440Z,21.21
2023-09-09T02:18:30.487Z,21.21
2023-09-09T02:19:30.573Z,21.20
2023-09-09T02:20:30.617Z,21.20
2023-09-09T02:21:30.708Z,21.20
2023-09-09T02:22:30.832Z,21.19
2023-09-09T02:23:30.901Z,21.19
2023-09-09T02:24:30.947Z,21.16
2023-09-09T02:25:31.001Z,21.14
2023-09-09T02:26:31.074Z,21.13
2023-09-09T02:27:31.210Z,21.09
2023-09-09T02:28:31.246Z,21.09
2023-09-09T02:29:31.309Z,21.09
2023-09-09T02:30:31.453Z,21.06
2023-09-09T02:31:31.554Z,21.05
2023-09-09T02:32:31.690Z,21.05
2023-09-09T02:33:31.836Z,21.06
2023-09-09T02:34:31.752Z,21.06
2023-09-09T02:35:31.905Z,21.09
2023-09-09T02:36:31.893Z,21.11
2023-09-09T02:37:32.073Z,21.13
2023-09-09T02:38:32.138Z,21.11
2023-09-09T02:39:32.177Z,21.09
2023-09-09T02:40:32.237Z,21.11
2023-09-09T02:41:32.311Z,21.13
2023-09-09T02:42:32.530Z,21.11
2023-09-09T02:43:32.510Z,21.13
2023-09-09T02:44:32.587Z,21.13
2023-09-09T02:45:32.692Z,21.13
2023-09-09T02:46:32.835Z,21.13
2023-09-09T02:47:32.980Z,21.13
2023-09-09T02:48:33.073Z,21.11
2023-09-09T02:49:33.035Z,21.11
2023-09-09T02:50:33.134Z,21.09
2023-09-09T02:51:33.138Z,21.13
2023-09-09T02:52:33.283Z,21.11
2023-09-09T02:53:33.348Z,21.13
2023-09-09T02:54:33.384Z,21.11
2023-09-09T02:55:33.524Z,21.13
2023-09-09T02:56:33.577Z,21.13
2023-09-09T02:57:33.753Z,21.11
2023-09-09T02:58:33.772Z,21.11
2023-09-09T02:59:33.799Z,21.11
2023-09-09T03:00:33.887Z,21.11
2023-09-09T03:01:34.023Z,21.09
2023-09-09T03:02:34.199Z,21.09
2023-09-09T03:03:34.392Z,21.08
2023-09-09T03:04:34.304Z,21.06
2023-09-09T03:05:34.579Z,21.04
2023-09-09T03:06:34.513Z,21.04
2023-09-09T03:07:34.656Z,21.02
2023-09-09T03:08:34.634Z,21.02
2023-09-09T03:12:59.202Z,20.84
2023-09-09T03:18:54.138Z,20.64
2023-09-09T04:33:40.312Z,19.24
2023-09-09T04:34:41.100Z,19.28
2023-09-09T04:35:41.008Z,19.32
2023-09-09T04:36:40.990Z,19.36
2023-09-09T04:49:32.679Z,19.46
2023-09-09T04:50:33.805Z,19.47
2023-09-09T04:51:33.799Z,19.51
2023-09-09T05:02:15.862Z,19.58
2023-09-09T05:32:44.360Z,19.28
2023-09-09T05:44:19.332Z,19.24
2023-09-09T05:45:19.940Z,19.28
2023-09-09T05:46:19.922Z,19.31
2023-09-09T05:47:19.957Z,19.36
2023-09-09T05:48:19.936Z,19.40
2023-09-09T05:49:32.045Z,19.47
2023-09-09T05:50:20.044Z,19.53
2023-09-09T05:51:20.130Z,19.54
2023-09-09T05:52:20.238Z,19.60
2023-09-09T05:53:20.458Z,19.63
2023-09-09T05:54:20.386Z,19.66
2023-09-09T05:55:20.515Z,19.68
2023-09-09T05:56:20.708Z,19.69
2023-09-09T05:57:21.035Z,19.70
2023-09-09T05:58:20.804Z,19.72
2023-09-09T05:59:20.965Z,19.73
2023-09-09T06:00:21.101Z,19.75
2023-09-09T06:48:31.245Z,19.25
2023-09-09T06:49:32.388Z,19.31
2023-09-09T06:50:32.260Z,19.33
2023-09-09T08:32:32.922Z,20.20
2023-09-09T08:33:33.888Z,20.25
2023-09-09T08:34:33.956Z,20.33
2023-09-09T08:35:33.962Z,20.42
2023-09-09T08:36:34.069Z,20.50
2023-09-09T08:37:34.090Z,20.58
2023-09-09T08:38:34.223Z,20.64
2023-09-09T08:39:34.316Z,20.71
2023-09-09T08:44:16.844Z,20.89
2023-09-09T08:45:17.598Z,20.91
2023-09-09T08:47:09.505Z,20.99
2023-09-09T08:47:17.831Z,21.06
2023-09-09T08:48:17.929Z,21.13
2023-09-09T08:49:17.978Z,21.19
2023-09-09T08:50:17.984Z,21.23
2023-09-09T08:51:18.134Z,21.29
2023-09-09T08:52:18.337Z,21.34
2023-09-09T09:03:52.011Z,21.42
2023-09-09T09:04:51.868Z,21.45
2023-09-09T09:05:51.699Z,21.46
2023-09-09T09:10:55.060Z,21.61
2023-09-09T09:13:56.565Z,21.57
2023-09-09T09:14:57.770Z,21.57
2023-09-09T09:15:57.649Z,21.61
2023-09-09T09:24:07.428Z,21.72
2023-09-09T09:25:07.327Z,21.74
2023-09-09T09:26:07.283Z,21.78
2023-09-09T09:30:51.258Z,21.85
2023-09-09T09:31:52.232Z,21.90
2023-09-09T09:32:52.308Z,21.95
2023-09-09T09:33:52.425Z,22.01
2023-09-09T09:34:52.293Z,22.10
2023-09-09T09:35:52.439Z,22.16
2023-09-09T09:41:53.311Z,22.27
2023-09-09T09:42:48.637Z,22.32
2023-09-09T09:43:48.454Z,22.35
2023-09-09T09:44:48.600Z,22.41
2023-09-09T09:45:48.673Z,22.49
2023-09-09T09:47:00.289Z,22.54
2023-09-09T09:47:48.975Z,22.56
2023-09-09T09:49:02.034Z,22.60
2023-09-09T09:49:49.168Z,22.64
2023-09-09T09:50:49.249Z,22.68
2023-09-09T09:51:49.155Z,22.71
2023-09-09T09:52:49.251Z,22.74
2023-09-09T09:54:00.893Z,22.77
2023-09-09T09:54:49.487Z,22.82
2023-09-09T09:59:16.959Z,22.87
2023-09-09T10:00:17.927Z,22.90
2023-09-09T10:01:18.047Z,22.94
2023-09-09T10:02:18.001Z,22.97
2023-09-09T10:03:18.051Z,23.02
2023-09-09T10:04:33.577Z,23.07
2023-09-09T10:05:18.616Z,23.08
2023-09-09T10:06:18.348Z,23.07
2023-09-09T10:07:18.517Z,23.07
2023-09-09T10:08:18.404Z,23.07
2023-09-09T10:26:20.549Z,22.97
2023-09-09T10:27:21.510Z,23.02
2023-09-09T10:28:44.642Z,23.04
2023-09-09T10:29:24.204Z,23.08
2023-09-09T10:30:21.854Z,23.09
2023-09-09T10:31:21.815Z,23.14
2023-09-09T10:32:21.884Z,23.20
2023-09-09T10:33:21.957Z,23.26
2023-09-09T10:36:17.457Z,23.32
2023-09-09T10:37:18.395Z,23.31
2023-09-09T10:43:34.783Z,23.23
2023-09-09T10:44:35.236Z,23.26
2023-09-09T10:45:35.308Z,23.31
2023-09-09T10:54:32.131Z,23.47
2023-09-09T11:01:31.354Z,23.40
2023-09-09T11:06:21.950Z,23.42
2023-09-09T11:07:22.812Z,23.45
2023-09-09T11:08:22.927Z,23.47
2023-09-09T11:09:22.952Z,23.53
2023-09-09T11:10:23.038Z,23.60
2023-09-09T11:11:23.109Z,23.68
2023-09-09T11:12:23.246Z,23.72
2023-09-09T11:13:23.560Z,23.79
2023-09-09T11:38:05.211Z,23.68
2023-09-09T11:46:43.983Z,23.83
2023-09-09T11:47:45.080Z,23.87
2023-09-09T11:48:45.103Z,23.95
2023-09-09T11:49:45.100Z,24.05
2023-09-09T11:50:45.219Z,24.12
2023-09-09T11:51:45.236Z,24.20
2023-09-09T12:01:21.900Z,24.13
2023-09-09T12:02:22.845Z,24.12
2023-09-09T12:03:23.730Z,24.12
2023-09-09T12:04:33.447Z,24.14
2023-09-09T12:05:23.510Z,24.17
2023-09-09T12:06:22.869Z,24.22
2023-09-09T12:07:22.917Z,24.26
2023-09-09T12:08:44.449Z,24.32
2023-09-09T12:27:14.179Z,24.29
2023-09-09T12:28:15.254Z,24.32
2023-09-09T12:29:15.219Z,24.38
2023-09-09T12:32:11.921Z,24.56
2023-09-09T12:33:13.001Z,24.59
2023-09-09T12:34:13.095Z,24.63
2023-09-09T12:35:13.025Z,24.68
2023-09-09T12:36:13.080Z,24.73
2023-09-09T12:37:13.043Z,24.80
2023-09-09T12:38:13.112Z,24.83
2023-09-09T12:39:13.217Z,24.88
2023-09-09T12:40:13.277Z,24.91
2023-09-09T12:41:13.425Z,24.94
2023-09-09T12:42:13.450Z,24.95
2023-09-09T12:46:30.254Z,24.98
2023-09-09T12:47:31.320Z,24.98
2023-09-09T12:48:31.231Z,24.98
2023-09-09T12:49:31.172Z,25.02
2023-09-09T12:50:31.287Z,25.07
2023-09-09T12:55:37.458Z,24.97
2023-09-09T12:56:38.570Z,24.94
2023-09-09T12:57:38.551Z,24.94
2023-09-09T12:58:38.578Z,25.00
2023-09-09T12:59:38.640Z,25.01
2023-09-09T13:00:38.745Z,25.06
2023-09-09T13:01:38.838Z,25.10
2023-09-09T13:02:38.964Z,25.15
2023-09-09T13:05:11.957Z,25.19
2023-09-09T13:06:13.000Z,25.19
2023-09-09T13:07:13.165Z,25.19
2023-09-09T13:08:13.024Z,25.22
2023-09-09T13:09:12.977Z,25.22
2023-09-09T13:10:13.073Z,25.25
2023-09-09T13:11:13.249Z,25.28
2023-09-09T13:12:13.362Z,25.30
2023-09-09T13:13:13.398Z,25.32
2023-09-09T13:15:13.547Z,25.38
2023-09-09T13:16:13.828Z,25.42
2023-09-09T13:17:13.770Z,25.43
2023-09-09T13:18:13.922Z,25.46
2023-09-09T13:19:13.925Z,25.49
2023-09-09T13:20:13.928Z,25.52
2023-09-09T13:21:14.204Z,25.53
2023-09-09T13:22:14.215Z,25.56
2023-09-09T13:23:14.189Z,25.54
2023-09-09T13:24:14.231Z,25.56
2023-09-09T13:25:14.301Z,25.61
2023-09-09T13:26:14.383Z,25.62
2023-09-09T13:27:14.511Z,25.59
2023-09-09T13:28:14.527Z,25.62
2023-09-09T13:29:16.778Z,25.62
2023-09-09T13:30:14.658Z,25.64
2023-09-09T13:31:14.767Z,25.68
2023-09-09T13:32:14.924Z,25.68
2023-09-09T13:33:14.935Z,25.71
2023-09-09T13:34:14.975Z,25.72
2023-09-09T13:35:15.041Z,25.75
2023-09-09T14:04:59.958Z,25.32
2023-09-09T14:06:00.996Z,25.34
2023-09-09T14:07:01.035Z,25.37
2023-09-09T14:08:01.078Z,25.42
2023-09-09T14:09:01.151Z,25.47
2023-09-09T14:10:01.286Z,25.53
2023-09-09T14:11:01.331Z,25.57
2023-09-09T14:12:01.371Z,25.65
2023-09-09T14:13:01.573Z,25.72
2023-09-09T14:14:01.606Z,25.79
2023-09-09T14:15:01.638Z,25.84
2023-09-09T14:16:01.807Z,25.91
2023-09-09T14:17:01.950Z,25.93
2023-09-09T14:18:01.963Z,26.01
2023-09-09T14:19:02.088Z,26.04
2023-09-09T14:20:02.060Z,26.06
2023-09-09T14:21:02.205Z,26.06
2023-09-09T14:22:02.201Z,26.02
2023-09-09T14:23:02.292Z,26.06
2023-09-09T14:24:02.376Z,26.05
2023-09-09T14:25:02.454Z,26.08
2023-09-09T14:26:02.526Z,26.08
2023-09-09T14:27:02.624Z,26.11
2023-09-09T14:28:02.778Z,26.12
2023-09-09T14:29:02.821Z,26.18
2023-09-09T14:30:02.888Z,26.22
2023-09-09T14:31:03.028Z,26.24
2023-09-09T14:32:03.208Z,26.28
2023-09-09T14:33:03.242Z,26.32
2023-09-09T14:34:03.261Z,26.37
2023-09-09T14:35:03.333Z,26.40
2023-09-09T14:36:03.447Z,26.43
2023-09-09T14:37:03.511Z,26.47
2023-09-09T14:38:03.523Z,26.50
2023-09-09T14:45:45.780Z,26.37
2023-09-09T14:46:46.785Z,26.36
2023-09-09T14:47:46.982Z,26.36
2023-09-09T14:48:46.801Z,26.39
2023-09-09T14:49:46.861Z,26.42
2023-09-09T14:50:46.979Z,26.49
2023-09-09T14:51:47.097Z,26.52
2023-09-09T14:52:47.157Z,26.54
2023-09-09T14:53:47.319Z,26.55
2023-09-09T14:54:47.267Z,26.57
2023-09-09T14:55:47.432Z,26.59
2023-09-09T14:56:47.592Z,26.62
2023-09-09T14:57:47.558Z,26.67
2023-09-09T14:58:47.612Z,26.68
2023-09-09T14:59:47.689Z,26.69
2023-09-09T15:00:47.809Z,26.69
2023-09-09T15:01:47.885Z,26.72
2023-09-09T15:14:12.335Z,26.43
2023-09-09T15:15:13.240Z,26.42
2023-09-09T15:16:13.449Z,26.42
2023-09-09T15:17:13.335Z,26.43
2023-09-09T15:18:13.529Z,26.44
2023-09-09T15:19:13.503Z,26.47
2023-09-09T15:20:13.600Z,26.47
2023-09-09T15:21:14.304Z,26.50
2023-09-09T15:22:13.854Z,26.54
2023-09-09T15:23:13.782Z,26.57
2023-09-09T15:24:13.897Z,26.58
2023-09-09T15:25:14.005Z,26.62
2023-09-09T15:26:14.141Z,26.65
2023-09-09T15:27:14.194Z,26.68
2023-09-09T15:28:14.319Z,26.72
2023-09-09T15:29:14.359Z,26.73
2023-09-09T15:30:14.438Z,26.73
2023-09-09T15:31:14.504Z,26.77
2023-09-09T15:32:14.683Z,26.77
2023-09-09T15:33:14.624Z,26.79
2023-09-09T15:34:14.823Z,26.79
2023-09-09T15:35:14.799Z,26.80
2023-09-09T15:36:14.886Z,26.80
2023-09-09T15:37:15.018Z,26.81
2023-09-09T15:38:15.046Z,26.83
2023-09-09T15:39:15.137Z,26.83
2023-09-09T15:40:15.326Z,26.83
2023-09-09T15:41:15.360Z,26.87
2023-09-09T15:42:15.386Z,26.86
2023-09-09T15:43:15.497Z,26.87
2023-09-09T15:44:15.581Z,26.87
2023-09-09T15:45:15.647Z,26.87
2023-09-09T15:46:15.759Z,26.86
2023-09-09T15:47:15.821Z,26.87
2023-09-09T15:48:15.848Z,26.86
2023-09-09T15:49:16.021Z,26.86
2023-09-09T15:50:16.009Z,26.86
2023-09-09T15:51:16.080Z,26.86
2023-09-09T15:52:16.198Z,26.87
2023-09-09T15:53:16.229Z,26.87
2023-09-09T15:54:16.320Z,26.87
2023-09-09T15:55:16.454Z,26.87
2023-09-09T15:56:16.529Z,26.86
2023-09-09T15:57:16.556Z,26.84
2023-09-09T15:58:16.705Z,26.84
2023-09-09T15:59:16.751Z,26.84
2023-09-09T16:00:16.855Z,26.84
2023-09-09T16:01:17.038Z,26.83
2023-09-09T16:02:17.180Z,26.84
2023-09-09T16:03:17.151Z,26.84
2023-09-09T16:04:17.308Z,26.86
2023-09-09T16:05:17.261Z,26.86
2023-09-09T16:06:17.386Z,26.84
2023-09-09T16:07:17.449Z,26.83
2023-09-09T16:08:17.531Z,26.81
2023-09-09T16:09:17.638Z,26.81
2023-09-09T16:10:17.708Z,26.83
2023-09-09T16:11:17.780Z,26.80
2023-09-09T16:12:17.866Z,26.80
2023-09-09T16:13:17.961Z,26.81
2023-09-09T16:14:18.049Z,26.81
2023-09-09T16:15:18.151Z,26.83
2023-09-09T16:16:18.308Z,26.81
2023-09-09T16:17:18.303Z,26.80
2023-09-09T16:18:18.388Z,26.81
2023-09-09T16:19:18.493Z,26.81
2023-09-09T16:20:18.555Z,26.80
2023-09-09T16:22:23.048Z,26.74
2023-09-09T16:23:24.073Z,26.72
2023-09-09T16:24:24.014Z,26.68
2023-09-09T16:25:24.215Z,26.65
2023-09-09T16:26:24.356Z,26.67
2023-09-09T16:27:24.283Z,26.67
2023-09-09T16:28:24.498Z,26.65
2023-09-09T16:29:24.458Z,26.65
2023-09-09T16:30:24.531Z,26.64
2023-09-09T16:31:39.814Z,26.65
2023-09-09T16:32:24.892Z,26.65
2023-09-09T16:33:24.793Z,26.67
2023-09-09T16:34:24.924Z,26.67
2023-09-09T16:35:24.981Z,26.65
2023-09-09T16:36:25.075Z,26.65
2023-09-09T16:37:25.139Z,26.65
2023-09-09T16:38:25.181Z,26.65
2023-09-09T16:39:25.273Z,26.67
2023-09-09T16:40:25.403Z,26.67
2023-09-09T16:41:25.448Z,26.67
2023-09-09T16:42:25.578Z,26.67
2023-09-09T16:43:25.653Z,26.67
2023-09-09T16:44:25.695Z,26.67
2023-09-09T16:45:25.881Z,26.65
2023-09-09T16:46:25.950Z,26.64
2023-09-09T16:47:25.920Z,26.62
2023-09-09T16:48:26.048Z,26.59
2023-09-09T16:49:26.080Z,26.58
2023-09-09T16:50:26.235Z,26.55
2023-09-09T16:51:26.280Z,26.52
2023-09-09T16:52:26.430Z,26.49
2023-09-09T16:53:27.717Z,26.47
2023-09-09T17:05:34.042Z,25.83
2023-09-09T17:06:35.077Z,25.82
2023-09-09T17:07:35.102Z,25.82
2023-09-09T17:08:35.124Z,25.83
2023-09-09T17:09:35.250Z,25.86
2023-09-09T17:10:35.375Z,25.87
2023-09-09T17:11:35.405Z,25.87
2023-09-09T17:12:35.501Z,25.89
2023-09-09T17:13:35.554Z,25.91
2023-09-09T17:14:35.610Z,25.93
2023-09-09T19:08:55.540Z,23.90
2023-09-09T19:27:52.601Z,23.64
2023-09-09T19:28:53.678Z,23.65
2023-09-09T19:29:53.696Z,23.68
2023-09-09T19:30:53.649Z,23.72
2023-09-09T19:31:55.848Z,23.80
2023-09-09T21:00:21.870Z,22.83
2023-09-09T23:46:02.975Z,21.30
2023-09-09T23:46:57.488Z,21.30
2023-09-09T23:47:57.516Z,21.34
2023-09-09T23:48:57.546Z,21.39
2023-09-09T23:49:57.508Z,21.44
2023-09-09T23:50:57.608Z,21.48
2023-09-09T23:51:57.658Z,21.51
2023-09-09T23:52:57.805Z,21.59
2023-09-09T23:58:29.521Z,21.66
2023-09-09T23:59:28.092Z,21.66
